createdAt,value
2023-04-28T03:34:01.802Z,3.70
2023-04-28T03:44:37.424Z,3.85
2023-04-28T03:55:14.937Z,4.85
2023-04-28T04:05:51.059Z,3.22
2023-04-28T04:16:26.814Z,3.72
2023-04-28T04:27:05.390Z,4.22
2023-04-28T04:37:47.560Z,3.85
2023-04-28T04:48:25.119Z,4.90
2023-04-28T04:59:01.287Z,4.95
2023-04-28T05:09:57.109Z,5.53
2023-04-28T05:20:32.914Z,5.60
2023-04-28T05:31:08.784Z,5.75
2023-04-28T05:41:44.755Z,6.22
2023-04-28T05:52:21.370Z,5.97
2023-04-28T06:02:57.094Z,5.82
2023-04-28T06:13:33.036Z,7.45
2023-04-28T06:24:08.731Z,6.68
2023-04-28T06:34:47.464Z,7.80
2023-04-28T06:45:23.323Z,7.90
2023-04-28T06:55:59.099Z,8.13
2023-04-28T07:06:36.995Z,9.10
2023-04-28T07:17:12.701Z,9.50
2023-04-28T07:27:48.453Z,9.30
2023-04-28T07:38:24.313Z,6.10
2023-04-28T07:49:00.426Z,6.82
2023-04-28T07:59:36.168Z,7.60
2023-04-28T08:10:12.285Z,9.00
2023-04-28T08:20:47.858Z,9.15
2023-04-28T08:31:23.822Z,8.70
2023-04-28T08:41:59.523Z,7.97
2023-04-28T08:52:36.424Z,8.68
2023-04-28T09:03:13.727Z,7.10
2023-04-28T09:13:50.095Z,7.30
2023-04-28T09:24:33.335Z,7.93
2023-04-28T09:35:09.380Z,7.28
2023-04-28T09:45:45.818Z,6.95
2023-04-28T09:56:25.379Z,6.82
2023-04-28T10:17:38.660Z,6.60
2023-04-28T10:28:14.609Z,9.30
2023-04-28T10:39:09.736Z,9.05
2023-04-28T10:49:57.594Z,9.00
2023-04-28T11:00:33.274Z,7.85
2023-04-28T11:11:25.975Z,7.95
2023-04-28T11:22:11.775Z,6.88
2023-04-28T11:32:50.386Z,8.45
2023-04-28T11:43:46.081Z,8.13
2023-04-28T11:54:29.524Z,8.13
2023-04-28T12:05:07.456Z,10.57
2023-04-28T12:15:43.387Z,11.00
2023-04-28T12:26:25.585Z,8.65
2023-04-28T12:37:02.814Z,7.15
2023-04-28T12:47:39.686Z,6.82
2023-04-28T12:58:15.311Z,7.70
2023-04-28T13:08:50.982Z,5.53
2023-04-28T13:19:27.643Z,4.45
2023-04-28T13:30:05.325Z,4.50
2023-04-28T13:40:42.266Z,4.70
2023-04-28T13:51:17.992Z,5.80
2023-04-28T14:01:54.028Z,4.45
2023-04-28T14:12:29.632Z,4.10
2023-04-28T14:23:05.149Z,4.85
2023-04-28T14:33:41.521Z,1.00
2023-04-28T14:44:17.225Z,1.20
2023-04-28T14:54:54.324Z,1.00
2023-04-28T15:05:30.247Z,1.05
